createdAt,value
2023-10-26T00:01:20.348Z,100787.50
2023-10-26T00:03:48.462Z,100781.16
2023-10-26T00:06:16.487Z,100795.28
2023-10-26T00:08:44.365Z,100791.78
2023-10-26T00:11:12.270Z,100783.19
2023-10-26T00:13:40.160Z,100781.41
2023-10-26T00:16:09.541Z,100788.31
2023-10-26T00:18:37.566Z,100791.72
2023-10-26T00:21:05.695Z,100775.25
2023-10-26T00:23:33.591Z,100783.03
2023-10-26T00:26:01.441Z,100757.34
2023-10-26T00:28:29.353Z,100782.94
2023-10-26T00:30:57.229Z,100775.97
2023-10-26T00:33:26.552Z,100776.78
2023-10-26T00:35:55.389Z,100775.91
2023-10-26T00:38:23.305Z,100773.38
2023-10-26T00:40:51.195Z,100773.38
2023-10-26T00:43:23.202Z,100720.22
2023-10-26T00:45:53.530Z,100767.72
2023-10-26T00:48:22.393Z,100764.78
2023-10-26T00:50:52.087Z,100764.78
2023-10-26T00:53:21.908Z,100760.41
2023-10-26T00:55:52.105Z,100759.59
2023-10-26T00:58:21.383Z,100751.88
2023-10-26T01:00:49.380Z,100761.38
2023-10-26T01:03:17.476Z,100757.88
2023-10-26T01:05:45.973Z,100759.69
2023-10-26T01:08:15.403Z,100750.09
2023-10-26T01:10:44.272Z,100754.41
2023-10-26T01:13:12.431Z,100749.22
2023-10-26T01:15:40.356Z,100740.63
2023-10-26T01:18:08.324Z,100745.81
2023-10-26T01:20:36.299Z,100746.53
2023-10-26T01:23:05.617Z,100747.44
2023-10-26T01:25:33.485Z,100747.44
2023-10-26T01:28:01.519Z,100756.09
2023-10-26T01:30:29.405Z,100743.94
2023-10-26T01:32:57.730Z,100746.53
2023-10-26T01:35:25.822Z,100742.97
2023-10-26T01:37:53.693Z,100737.06
2023-10-26T01:40:22.990Z,100732.44
2023-10-26T01:42:50.859Z,100731.63
2023-10-26T01:45:18.785Z,100721.91
2023-10-26T01:47:46.729Z,100734.53
2023-10-26T01:50:14.690Z,100729.34
2023-10-26T01:52:42.654Z,100731.94
2023-10-26T01:55:10.956Z,100725.53
2023-10-26T01:57:40.212Z,100721.47
2023-10-26T02:00:10.070Z,100724.88
2023-10-26T02:02:38.062Z,100727.47
2023-10-26T02:05:06.883Z,100730.91
2023-10-26T02:07:34.842Z,100719.47
2023-10-26T02:10:02.762Z,100726.34
2023-10-26T02:12:30.665Z,100728.88
2023-10-26T02:14:59.988Z,100707.63
2023-10-26T02:17:27.916Z,100722.78
2023-10-26T02:19:55.776Z,100724.50
2023-10-26T02:22:23.652Z,100719.31
2023-10-26T02:24:51.535Z,100720.19
2023-10-26T02:27:19.412Z,100724.50
2023-10-26T02:29:47.311Z,100726.94
2023-10-26T02:32:16.586Z,100710.16
2023-10-26T02:34:44.693Z,100707.94
2023-10-26T02:37:12.823Z,100714.03
2023-10-26T02:39:40.963Z,100716.72
2023-10-26T02:42:10.357Z,100713.31
2023-10-26T02:44:38.352Z,100702.03
2023-10-26T02:47:06.558Z,100707.94
2023-10-26T02:49:35.890Z,100701.13
2023-10-26T02:52:03.952Z,100695.94
2023-10-26T02:54:31.922Z,100687.19
2023-10-26T02:56:59.949Z,100691.81
2023-10-26T02:59:27.832Z,100696.34
2023-10-26T03:01:55.712Z,100668.81
2023-10-26T03:04:23.725Z,100694.66
2023-10-26T03:06:53.145Z,100688.25
2023-10-26T03:09:21.424Z,100697.31
2023-10-26T03:11:49.933Z,100675.34
2023-10-26T03:14:19.581Z,100678.19
2023-10-26T03:16:47.661Z,100693.03
2023-10-26T03:19:15.632Z,100671.88
2023-10-26T03:21:43.508Z,100687.00
2023-10-26T03:24:13.186Z,100671.94
2023-10-26T03:26:41.136Z,100664.16
2023-10-26T03:29:09.001Z,100658.81
2023-10-26T03:31:37.814Z,100684.25
2023-10-26T03:34:05.702Z,100677.22
2023-10-26T03:36:33.661Z,100670.31
2023-10-26T03:39:03.219Z,100681.75
2023-10-26T03:41:32.560Z,100673.97
2023-10-26T03:44:00.542Z,100673.88
2023-10-26T03:46:28.597Z,100678.09
2023-10-26T03:48:56.476Z,100673.81
2023-10-26T03:51:24.498Z,100661.66
2023-10-26T03:53:52.506Z,100668.47
2023-10-26T03:56:20.432Z,100667.66
2023-10-26T03:58:49.744Z,100672.03
2023-10-26T04:01:17.713Z,100609.25
2023-10-26T04:03:45.718Z,100653.84
2023-10-26T04:06:13.636Z,100656.53
2023-10-26T04:08:41.532Z,100649.63
2023-10-26T04:11:09.372Z,100646.88
2023-10-26T04:13:37.259Z,100652.31
2023-10-26T04:16:09.107Z,100646.22
2023-10-26T04:18:37.097Z,100648.00
2023-10-26T04:21:05.605Z,100649.78
2023-10-26T04:23:33.611Z,100647.19
2023-10-26T04:26:01.518Z,100637.56
2023-10-26T04:28:29.422Z,100641.19
2023-10-26T04:30:57.300Z,100640.31
2023-10-26T04:33:26.700Z,100631.63
2023-10-26T04:35:54.593Z,100635.03
2023-10-26T04:38:22.484Z,100630.66
2023-10-26T06:09:01.184Z,100598.97
2023-10-26T06:11:29.068Z,100592.00
2023-10-26T06:13:57.203Z,100594.50
2023-10-26T06:16:25.187Z,100580.41
2023-10-26T06:18:53.077Z,100580.41
2023-10-26T06:21:21.260Z,100589.81
2023-10-26T06:23:49.272Z,100576.69
2023-10-26T06:26:18.547Z,100577.44
2023-10-26T06:28:48.043Z,100580.03
2023-10-26T06:31:16.591Z,100574.84
2023-10-26T06:33:45.343Z,100581.81
2023-10-26T06:36:13.636Z,100574.84
2023-10-26T06:38:42.526Z,100555.34
2023-10-26T06:41:11.313Z,100570.47
2023-10-26T06:43:40.700Z,100575.72
2023-10-26T06:46:08.718Z,100577.50
2023-10-26T06:48:37.868Z,100565.28
2023-10-26T06:51:07.323Z,100550.88
2023-10-26T06:53:36.136Z,100545.53
2023-10-26T06:56:04.103Z,100551.03
2023-10-26T06:58:32.130Z,100560.75
2023-10-26T07:01:20.171Z,100557.34
2023-10-26T07:03:49.937Z,100539.78
2023-10-26T07:06:18.163Z,100554.91
2023-10-26T07:08:46.129Z,100547.78
2023-10-26T07:11:13.991Z,100554.91
2023-10-26T07:13:42.012Z,100555.06
2023-10-26T07:16:12.730Z,100543.88
2023-10-26T07:18:40.694Z,100549.22
2023-10-26T07:21:09.630Z,100546.69
2023-10-26T07:23:38.029Z,100529.13
2023-10-26T07:26:06.619Z,100539.16
2023-10-26T07:28:34.479Z,100547.16
2023-10-26T07:31:02.502Z,100549.91
2023-10-26T07:33:32.524Z,100499.25
2023-10-26T07:36:00.865Z,100464.56
2023-10-26T07:38:35.044Z,100551.09
2023-10-26T07:41:06.922Z,100538.78
2023-10-26T07:43:35.989Z,100532.56
2023-10-26T07:46:04.334Z,100535.09
2023-10-26T07:48:33.749Z,100549.47
2023-10-26T07:51:01.811Z,100544.50
2023-10-26T07:53:30.523Z,100542.50
2023-10-26T07:55:59.292Z,100558.38
2023-10-26T07:58:28.133Z,100554.97
2023-10-26T08:00:56.336Z,100524.13
2023-10-26T08:03:25.552Z,100550.06
2023-10-26T08:06:01.905Z,100543.41
2023-10-26T08:08:30.022Z,100544.38
2023-10-26T08:10:58.185Z,100542.00
2023-10-26T08:13:26.181Z,100539.63
2023-10-26T08:16:10.183Z,100514.34
2023-10-26T08:18:43.538Z,100535.97
2023-10-26T08:21:14.085Z,100532.72
2023-10-26T08:23:41.948Z,100535.59
2023-10-26T08:26:11.348Z,100540.13
2023-10-26T08:28:39.452Z,100529.06
2023-10-26T08:31:07.965Z,100518.72
2023-10-26T08:33:36.437Z,100523.41
2023-10-26T08:36:05.775Z,100531.59
2023-10-26T08:38:35.240Z,100518.09
2023-10-26T08:41:03.196Z,100515.69
2023-10-26T08:43:32.124Z,100497.44
2023-10-26T08:46:01.388Z,100512.63
2023-10-26T08:48:31.681Z,100516.03
2023-10-26T08:50:59.960Z,100505.50
2023-10-26T08:53:28.043Z,100516.09
2023-10-26T08:55:58.255Z,100513.50
2023-10-26T08:58:26.317Z,100502.69
2023-10-26T09:00:54.338Z,100514.19
2023-10-26T09:03:23.925Z,100502.56
2023-10-26T09:05:56.093Z,100514.06
2023-10-26T09:08:25.141Z,100514.88
2023-10-26T09:10:53.462Z,100517.59
2023-10-26T09:13:27.152Z,100509.81
2023-10-26T09:15:58.502Z,100509.75
2023-10-26T09:18:28.617Z,100498.19
2023-10-26T09:21:04.608Z,100509.75
2023-10-26T09:23:33.681Z,100504.63
2023-10-26T09:26:03.574Z,100400.44
2023-10-26T09:28:49.964Z,100503.81
2023-10-26T09:31:18.810Z,100500.38
2023-10-26T09:33:50.126Z,100500.44
2023-10-26T09:36:19.826Z,100496.97
2023-10-26T09:38:48.838Z,100481.03
2023-10-26T09:41:18.346Z,100473.38
2023-10-26T09:43:47.681Z,100486.84
2023-10-26T09:46:19.073Z,100465.44
2023-10-26T09:48:47.663Z,100480.81
2023-10-26T09:51:17.367Z,100483.50
2023-10-26T09:53:49.388Z,100464.28
2023-10-26T09:56:24.565Z,100474.66
2023-10-26T09:58:55.625Z,100473.16
2023-10-26T10:01:35.351Z,100472.28
2023-10-26T10:04:04.236Z,100473.97
2023-10-26T10:06:52.551Z,100466.19
2023-10-26T10:09:23.552Z,100464.41
2023-10-26T10:12:28.722Z,100461.81
2023-10-26T10:15:16.286Z,100458.31
2023-10-26T10:18:14.291Z,100453.81
2023-10-26T10:20:43.241Z,100460.94
2023-10-26T10:23:11.281Z,100450.25
2023-10-26T10:26:08.302Z,100457.91
2023-10-26T10:28:55.849Z,100447.41
2023-10-26T10:31:43.765Z,100448.16
2023-10-26T10:34:13.074Z,100452.38
2023-10-26T10:37:13.154Z,100456.75
2023-10-26T10:40:05.192Z,100448.91
2023-10-26T10:42:36.053Z,100442.81
2023-10-26T10:45:05.574Z,100453.22
2023-10-26T10:47:33.948Z,100440.91
2023-10-26T10:50:18.640Z,100446.38
2023-10-26T10:52:46.723Z,100424.38
2023-10-26T10:55:20.561Z,100435.03
2023-10-26T10:57:57.407Z,100436.81
2023-10-26T11:00:26.466Z,100436.81
2023-10-26T11:02:58.260Z,100441.38
2023-10-26T11:05:37.534Z,100431.31
2023-10-26T11:08:07.037Z,100393.72
2023-10-26T11:10:35.317Z,100413.59
2023-10-26T11:13:05.334Z,100427.28
2023-10-26T11:15:34.309Z,100423.09
2023-10-26T11:18:03.790Z,100406.22
2023-10-26T11:20:35.350Z,100420.69
2023-10-26T11:23:03.336Z,100420.94
2023-10-26T11:25:31.235Z,100416.75
2023-10-26T11:27:59.201Z,100382.31
2023-10-26T11:30:29.063Z,100417.69
2023-10-26T11:32:57.026Z,100392.16
2023-10-26T11:35:26.318Z,100414.97
2023-10-26T11:37:56.686Z,100413.97
2023-10-26T11:40:32.337Z,100414.78
2023-10-26T11:43:02.261Z,100413.78
2023-10-26T11:45:31.977Z,100418.84
2023-10-26T11:48:01.124Z,100418.66
2023-10-26T11:50:31.325Z,100410.78
2023-10-26T11:53:00.630Z,100415.09
2023-10-26T11:55:29.699Z,100415.03
2023-10-26T11:57:58.123Z,100415.78
2023-10-26T12:00:27.151Z,100419.16
2023-10-26T12:02:57.952Z,100374.59
2023-10-26T12:05:27.025Z,100410.22
2023-10-26T12:07:55.892Z,100394.44
2023-10-26T12:10:25.025Z,100412.69
2023-10-26T12:12:53.653Z,100402.19
2023-10-26T12:15:22.600Z,100399.56
2023-10-26T12:17:50.661Z,100375.66
2023-10-26T12:20:20.544Z,100401.47
2023-10-26T12:22:49.879Z,100398.19
2023-10-26T12:25:18.207Z,100396.47
2023-10-26T12:28:20.034Z,100388.63
2023-10-26T12:30:35.111Z,100399.03
2023-10-26T12:33:03.053Z,100392.03
2023-10-26T12:35:32.367Z,100388.56
2023-10-26T12:38:00.292Z,100395.47
2023-10-26T12:40:28.188Z,100385.13
2023-10-26T12:42:56.419Z,100393.03
2023-10-26T12:45:24.538Z,100397.53
2023-10-26T12:47:52.516Z,100395.00
2023-10-26T12:50:20.528Z,100394.16
2023-10-26T12:52:49.832Z,100380.00
2023-10-26T12:55:17.907Z,100390.88
2023-10-26T12:57:46.023Z,100392.72
2023-10-26T13:00:15.094Z,100391.94
2023-10-26T13:02:42.987Z,100391.81
2023-10-26T13:05:10.895Z,100390.31
2023-10-26T13:07:38.805Z,100389.53
2023-10-26T13:10:09.424Z,100385.34
2023-10-26T13:12:37.707Z,100371.22
2023-10-26T13:15:07.023Z,100383.78
2023-10-26T13:17:35.542Z,100376.66
2023-10-26T13:20:05.149Z,100377.63
2023-10-26T13:22:33.200Z,100374.97
2023-10-26T13:25:01.041Z,100371.47
2023-10-26T13:27:30.392Z,100367.09
2023-10-26T13:30:00.197Z,100363.47
2023-10-26T13:32:28.645Z,100366.91
2023-10-26T13:34:58.597Z,100366.91
2023-10-26T13:37:26.432Z,100372.94
2023-10-26T13:39:54.284Z,100373.69
2023-10-26T13:42:22.837Z,100369.31
2023-10-26T13:44:52.010Z,100368.31
2023-10-26T13:47:19.861Z,100370.84
2023-10-26T13:49:47.876Z,100369.00
2023-10-26T13:52:16.949Z,100368.06
2023-10-26T13:54:44.983Z,100362.72
2023-10-26T13:57:13.012Z,100369.47
2023-10-26T13:59:41.217Z,100358.00
2023-10-26T14:02:10.394Z,100357.63
2023-10-26T14:04:40.026Z,100359.81
2023-10-26T14:07:10.299Z,100364.69
2023-10-26T14:09:38.482Z,100350.41
2023-10-26T14:12:06.693Z,100322.56
2023-10-26T14:14:36.347Z,100349.88
2023-10-26T14:17:05.060Z,100322.09
2023-10-26T14:19:34.376Z,100356.53
2023-10-26T14:22:05.726Z,100357.13
2023-10-26T14:24:33.824Z,100355.91
2023-10-26T14:27:01.774Z,100357.53
2023-10-26T14:29:29.604Z,100358.28
2023-10-26T14:31:57.543Z,100356.44
2023-10-26T14:34:25.349Z,100358.97
2023-10-26T14:36:54.641Z,100358.16
2023-10-26T14:39:22.629Z,100356.44
2023-10-26T14:41:50.444Z,100360.75
2023-10-26T14:44:18.273Z,100359.88
2023-10-26T14:46:46.109Z,100359.88
2023-10-26T14:49:14.044Z,100352.91
2023-10-26T14:51:44.031Z,100348.53
2023-10-26T14:54:13.375Z,100342.50
2023-10-26T14:56:41.197Z,100342.38
2023-10-26T14:59:10.752Z,100343.25
2023-10-26T15:01:38.637Z,100354.41
2023-10-26T15:04:08.853Z,100344.69
2023-10-26T15:06:36.847Z,100350.78
2023-10-26T15:09:04.855Z,100348.88
2023-10-26T15:11:56.844Z,100350.34
2023-10-26T15:14:21.992Z,100334.44
2023-10-26T15:16:49.825Z,100333.19
2023-10-26T15:19:17.643Z,100327.66
2023-10-26T15:21:45.466Z,100328.19
2023-10-26T15:24:13.409Z,100334.81
2023-10-26T15:26:42.639Z,100325.84
2023-10-26T15:29:10.454Z,100334.31
2023-10-26T15:31:38.450Z,100345.25
2023-10-26T15:34:06.355Z,100340.00
2023-10-26T15:36:34.379Z,100334.47
2023-10-26T15:39:02.473Z,100334.81
2023-10-26T15:41:30.302Z,100333.13
2023-10-26T15:43:59.854Z,100337.50
2023-10-26T15:46:27.735Z,100334.81
2023-10-26T15:49:31.933Z,100340.00
2023-10-26T15:51:43.999Z,100346.91
2023-10-26T15:54:11.842Z,100331.19
2023-10-26T15:56:40.589Z,100300.56
2023-10-26T15:59:09.796Z,100348.75
2023-10-26T16:01:38.039Z,100339.06
2023-10-26T16:04:06.415Z,100348.81
2023-10-26T16:06:34.279Z,100347.19
2023-10-26T16:09:02.105Z,100350.66
2023-10-26T16:11:29.921Z,100348.91
2023-10-26T16:13:57.703Z,100357.56
2023-10-26T16:16:27.051Z,100343.72
2023-10-26T16:18:54.907Z,100348.69
2023-10-26T16:21:22.748Z,100349.03
2023-10-26T16:23:50.757Z,100323.44
2023-10-26T16:26:18.882Z,100347.47
2023-10-26T16:28:49.918Z,100343.78
2023-10-26T16:31:18.699Z,100358.81
2023-10-26T16:33:48.533Z,100354.44
2023-10-26T16:36:16.500Z,100342.28
2023-10-26T16:38:44.314Z,100331.50
2023-10-26T16:41:12.325Z,100348.28
2023-10-26T16:43:40.130Z,100343.63
2023-10-26T16:46:09.291Z,100337.84
2023-10-26T16:48:38.860Z,100347.34
2023-10-26T16:51:08.921Z,100340.38
2023-10-26T16:53:36.764Z,100335.19
2023-10-26T16:56:06.139Z,100342.97
2023-10-26T16:58:35.040Z,100334.22
2023-10-26T17:01:07.852Z,100314.69
2023-10-26T17:03:35.788Z,100329.84
2023-10-26T17:06:05.112Z,100322.75
2023-10-26T17:08:34.558Z,100305.22
2023-10-26T17:11:02.398Z,100321.13
2023-10-26T17:13:30.275Z,100327.19
2023-10-26T17:15:58.198Z,100320.22
2023-10-26T17:18:26.027Z,100313.34
2023-10-26T17:20:57.884Z,100318.47
2023-10-26T17:23:26.053Z,100318.47
2023-10-26T17:25:55.215Z,100320.84
2023-10-26T17:28:23.261Z,100333.13
2023-10-26T17:30:51.218Z,100320.03
2023-10-26T17:33:19.694Z,100323.44
2023-10-26T17:35:51.321Z,100324.25
2023-10-26T17:38:19.230Z,100318.25
2023-10-26T17:40:49.006Z,100321.56
2023-10-26T17:43:18.229Z,100324.09
2023-10-26T17:45:54.260Z,100323.13
2023-10-26T17:48:22.161Z,100327.44
2023-10-26T17:50:50.251Z,100329.06
2023-10-26T17:53:20.182Z,100316.69
2023-10-26T17:55:48.665Z,100282.06
2023-10-26T17:58:17.883Z,100314.03
2023-10-26T18:00:46.001Z,100318.31
2023-10-26T18:03:13.837Z,100315.59
2023-10-26T18:05:41.698Z,100309.16
2023-10-26T18:08:09.659Z,100311.66
2023-10-26T18:10:37.508Z,100314.19
2023-10-26T18:13:05.350Z,100314.03
2023-10-26T18:15:36.261Z,100301.59
2023-10-26T18:18:04.099Z,100305.00
2023-10-26T18:20:31.973Z,100306.63
2023-10-26T18:23:01.544Z,100305.50
2023-10-26T18:25:29.477Z,100293.06
2023-10-26T18:27:57.437Z,100301.81
2023-10-26T18:30:25.329Z,100297.44
2023-10-26T18:32:54.574Z,100304.31
2023-10-26T18:35:22.446Z,100307.66
2023-10-26T18:37:54.713Z,100278.19
2023-10-26T18:40:22.681Z,100306.31
2023-10-26T18:42:50.561Z,100300.97
2023-10-26T18:45:18.762Z,100300.75
2023-10-26T18:47:47.021Z,100292.75
2023-10-26T18:50:16.515Z,100297.13
2023-10-26T18:52:44.327Z,100300.91
2023-10-26T18:55:12.478Z,100294.59
2023-10-26T18:57:40.328Z,100300.25
2023-10-26T19:00:09.948Z,100297.81
2023-10-26T19:02:37.786Z,100303.06
2023-10-26T19:05:09.592Z,100292.84
2023-10-26T19:07:38.863Z,100285.81
2023-10-26T19:10:07.556Z,100286.03
2023-10-26T19:12:35.390Z,100260.13
2023-10-26T19:15:03.730Z,100284.13
2023-10-26T19:20:00.456Z,100253.31
2023-10-26T19:22:28.256Z,100281.81
2023-10-26T19:25:00.214Z,100274.50
2023-10-26T19:27:28.036Z,100281.38
2023-10-26T19:29:56.756Z,100250.66
2023-10-26T19:32:24.859Z,100279.88
2023-10-26T19:34:55.318Z,100273.44
2023-10-26T19:37:24.172Z,100284.44
2023-10-26T19:39:52.278Z,100274.31
2023-10-26T19:42:21.752Z,100282.88
2023-10-26T19:44:49.719Z,100280.81
2023-10-26T19:47:18.250Z,100282.25
2023-10-26T19:49:48.478Z,100280.50
2023-10-26T19:52:16.383Z,100287.28
2023-10-26T19:54:45.274Z,100274.28
2023-10-26T19:57:14.271Z,100261.03
2023-10-26T19:59:44.514Z,100236.06
2023-10-26T20:02:13.006Z,100261.09
2023-10-26T20:04:41.137Z,100263.44
2023-10-26T20:07:09.227Z,100225.56
2023-10-26T20:09:38.316Z,100260.28
2023-10-26T20:12:06.766Z,100261.97
2023-10-26T20:14:34.728Z,100241.63
2023-10-26T20:17:04.567Z,100250.75
2023-10-26T20:19:32.410Z,100253.41
2023-10-26T20:22:00.220Z,100245.56
2023-10-26T20:24:28.433Z,100259.63
2023-10-26T20:26:56.285Z,100261.41
2023-10-26T20:29:24.643Z,100264.97
2023-10-26T20:31:52.549Z,100258.00
2023-10-26T20:34:21.990Z,100246.53
2023-10-26T20:36:51.493Z,100251.22
2023-10-26T20:39:19.902Z,100247.81
2023-10-26T20:41:47.693Z,100249.59
2023-10-26T20:44:16.618Z,100241.03
2023-10-26T20:46:44.810Z,100246.28
2023-10-26T20:49:12.866Z,100238.50
2023-10-26T20:51:42.843Z,100240.28
2023-10-26T20:54:10.739Z,100248.94
2023-10-26T20:56:38.862Z,100241.91
2023-10-26T20:59:06.734Z,100253.63
2023-10-26T21:01:34.601Z,100249.47
2023-10-26T21:04:02.467Z,100234.97
2023-10-26T21:06:30.378Z,100214.66
2023-10-26T21:09:01.018Z,100237.03
2023-10-26T21:11:29.365Z,100240.66
2023-10-26T21:13:57.327Z,100244.22
2023-10-26T21:16:26.456Z,100233.13
2023-10-26T21:18:54.478Z,100212.78
2023-10-26T21:21:22.583Z,100221.00
2023-10-26T21:23:50.418Z,100167.84
2023-10-26T21:26:19.756Z,100218.56
2023-10-26T21:28:48.691Z,100214.13
2023-10-26T21:31:16.877Z,100203.78
2023-10-26T21:33:44.823Z,100213.69
2023-10-26T21:36:12.753Z,100215.47
2023-10-26T21:38:40.652Z,100209.47
2023-10-26T21:41:09.334Z,100206.88
2023-10-26T21:43:38.588Z,100143.97
2023-10-26T21:46:07.521Z,100206.13
2023-10-26T21:48:36.028Z,100201.84
2023-10-26T21:51:05.628Z,100207.19
2023-10-26T21:53:33.463Z,100202.88
2023-10-26T21:56:01.303Z,100205.53
2023-10-26T21:58:29.187Z,100198.66
2023-10-26T22:00:58.474Z,100198.75
2023-10-26T22:03:26.761Z,100189.28
2023-10-26T22:05:55.025Z,100185.88
2023-10-26T22:08:22.864Z,100194.59
2023-10-26T22:10:50.906Z,100197.25
2023-10-26T22:13:19.025Z,100191.25
2023-10-26T22:15:49.108Z,100187.78
2023-10-26T22:18:18.411Z,100189.50
2023-10-26T22:20:46.287Z,100159.97
2023-10-26T22:23:14.582Z,100188.53
2023-10-26T22:25:43.078Z,100187.78
2023-10-26T22:28:11.061Z,100182.53
2023-10-26T22:30:39.039Z,100188.59
2023-10-26T22:33:06.847Z,100170.19
2023-10-26T22:35:36.102Z,100172.91
2023-10-26T22:38:04.373Z,100164.25
2023-10-26T22:40:32.962Z,100159.91
2023-10-26T22:43:02.667Z,100157.31
2023-10-26T22:45:30.763Z,100157.16
2023-10-26T22:47:58.798Z,100164.19
2023-10-26T22:50:26.711Z,100156.41
2023-10-26T22:52:55.901Z,100149.47
2023-10-26T22:55:23.807Z,100155.59
2023-10-26T22:57:51.750Z,100155.53
2023-10-26T23:00:20.019Z,100146.94
2023-10-26T23:02:47.911Z,100151.25
2023-10-26T23:05:15.783Z,100152.06
2023-10-26T23:07:43.641Z,100156.41
2023-10-26T23:10:13.172Z,100122.78
2023-10-26T23:12:41.119Z,100150.50
2023-10-26T23:15:09.712Z,100143.63
2023-10-26T23:17:37.546Z,100134.16
2023-10-26T23:20:06.005Z,100130.59
2023-10-26T23:22:33.831Z,100066.72
2023-10-26T23:25:01.702Z,100127.94
2023-10-26T23:27:31.169Z,100127.88
2023-10-26T23:30:01.031Z,100122.69
2023-10-26T23:32:28.888Z,100122.75
2023-10-26T23:34:56.988Z,100122.75
2023-10-26T23:37:24.898Z,100120.25
2023-10-26T23:39:52.738Z,100128.00
2023-10-26T23:42:22.255Z,100132.31
2023-10-26T23:44:51.471Z,100133.25
2023-10-26T23:47:19.317Z,100131.47
2023-10-26T23:49:47.109Z,100136.75
2023-10-26T23:52:14.937Z,100138.38
2023-10-26T23:54:42.831Z,100127.06
2023-10-26T23:57:10.626Z,100132.31
2023-10-26T23:59:38.497Z,100128.00
